Time;durP1;ratioP1;P1;durP2;ratioP2;P2;SDS_P1;SDS_P2;PMS_P1;PMS_P2;Temp;Humidity;BMP_temperature;BMP_pressure;BME280_temperature;BME280_humidity;BME280_pressure;Samples;Min_cycle;Max_cycle;Signal;HPM_P1;HPM_P2
2022/03/05 00:00:49;;;;;;;38.33;22.90;;;;;;;;;;4948341;28;20612;-44
2022/03/05 00:03:15;;;;;;;35.20;21.50;;;;;;;;;;4945254;28;20445;-44
2022/03/05 00:05:41;;;;;;;37.93;21.67;;;;;;;;;;4945859;28;20472;-44
2022/03/05 00:08:09;;;;;;;36.10;22.17;;;;;;;;;;4947247;28;20465;-44
2022/03/05 00:10:35;;;;;;;37.03;22.67;;;;;;;;;;4945664;28;20569;-44
2022/03/05 00:13:01;;;;;;;41.33;22.30;;;;;;;;;;4942682;28;21065;-44
2022/03/05 00:15:28;;;;;;;39.27;23.03;;;;;;;;;;4945725;28;20433;-44
2022/03/05 00:17:55;;;;;;;39.60;23.13;;;;;;;;;;4947593;28;20441;-44
2022/03/05 00:20:21;;;;;;;40.17;23.93;;;;;;;;;;4947158;28;20873;-44
2022/03/05 00:22:47;;;;;;;39.23;23.50;;;;;;;;;;4942068;28;20430;-44
2022/03/05 00:25:13;;;;;;;47.93;24.43;;;;;;;;;;4944264;28;20930;-44
2022/03/05 00:27:40;;;;;;;38.83;23.63;;;;;;;;;;4945736;28;20843;-43
2022/03/05 00:30:07;;;;;;;43.67;24.40;;;;;;;;;;4945875;28;20414;-43
2022/03/05 00:32:33;;;;;;;43.23;25.10;;;;;;;;;;4941068;28;20425;-43
2022/03/05 00:34:59;;;;;;;41.43;24.43;;;;;;;;;;4945461;28;20429;-43
2022/03/05 00:37:25;;;;;;;46.40;24.97;;;;;;;;;;4945630;28;20481;-43
2022/03/05 00:39:51;;;;;;;40.10;24.13;;;;;;;;;;4945926;28;20469;-44
2022/03/05 00:42:17;;;;;;;40.67;25.03;;;;;;;;;;4944245;28;20426;-44
2022/03/05 00:44:43;;;;;;;41.37;24.73;;;;;;;;;;4943038;28;20426;-43
2022/03/05 00:47:10;;;;;;;42.83;24.80;;;;;;;;;;4945276;28;20725;-43
2022/03/05 00:49:36;;;;;;;47.30;25.53;;;;;;;;;;4948298;28;20704;-44
2022/03/05 00:52:02;;;;;;;39.93;23.70;;;;;;;;;;4941583;28;20425;-44
2022/03/05 00:54:28;;;;;;;43.00;24.83;;;;;;;;;;4942420;28;20433;-45
2022/03/05 00:56:54;;;;;;;41.23;24.00;;;;;;;;;;4945867;28;20548;-42
2022/03/05 00:59:20;;;;;;;41.00;25.70;;;;;;;;;;4945762;28;20974;-44
2022/03/05 01:01:46;;;;;;;42.53;25.07;;;;;;;;;;4942298;28;20479;-42
2022/03/05 01:04:12;;;;;;;42.30;25.10;;;;;;;;;;4946372;28;20882;-44
2022/03/05 01:06:38;;;;;;;48.23;26.77;;;;;;;;;;4948878;28;20516;-43
2022/03/05 01:09:05;;;;;;;44.67;24.83;;;;;;;;;;4945144;28;20421;-45
2022/03/05 01:11:31;;;;;;;48.27;26.60;;;;;;;;;;4942707;28;21013;-44
2022/03/05 01:13:57;;;;;;;42.23;25.93;;;;;;;;;;4944080;28;20889;-44
2022/03/05 01:16:23;;;;;;;46.17;26.73;;;;;;;;;;4944923;28;21013;-44
2022/03/05 01:18:49;;;;;;;47.63;27.43;;;;;;;;;;4943686;28;20530;-44
2022/03/05 01:21:15;;;;;;;48.87;27.70;;;;;;;;;;4944565;28;20524;-44
2022/03/05 01:23:41;;;;;;;48.10;27.93;;;;;;;;;;4944214;28;20447;-44
2022/03/05 01:26:08;;;;;;;49.33;27.50;;;;;;;;;;4947887;28;20889;-44
2022/03/05 01:28:34;;;;;;;46.93;28.67;;;;;;;;;;4939700;28;20481;-44
2022/03/05 01:31:00;;;;;;;47.17;27.93;;;;;;;;;;4942482;28;20922;-44
2022/03/05 01:33:26;;;;;;;45.70;28.10;;;;;;;;;;4944475;28;20913;-44
2022/03/05 01:35:52;;;;;;;47.60;27.97;;;;;;;;;;4946713;28;20525;-44
2022/03/05 01:38:19;;;;;;;43.07;25.27;;;;;;;;;;4944713;28;20440;-44
2022/03/05 01:40:46;;;;;;;43.57;26.80;;;;;;;;;;4943075;28;20836;-44
2022/03/05 01:43:12;;;;;;;47.60;28.20;;;;;;;;;;4944758;28;20928;-44
2022/03/05 01:45:39;;;;;;;47.60;27.23;;;;;;;;;;4947670;28;20452;-44
2022/03/05 01:48:05;;;;;;;47.43;26.70;;;;;;;;;;4944402;28;20429;-44
2022/03/05 01:50:31;;;;;;;48.43;28.43;;;;;;;;;;4950238;28;20425;-44
2022/03/05 01:52:58;;;;;;;49.90;29.37;;;;;;;;;;4947650;28;21217;-44
2022/03/05 01:55:24;;;;;;;52.07;28.30;;;;;;;;;;4943763;28;20422;-44
2022/03/05 01:57:50;;;;;;;48.03;27.90;;;;;;;;;;4945280;28;20921;-44
2022/03/05 02:00:17;;;;;;;51.63;28.47;;;;;;;;;;4948303;28;20417;-44
2022/03/05 02:02:44;;;;;;;49.53;27.70;;;;;;;;;;4947420;28;20434;-44
2022/03/05 02:05:10;;;;;;;55.70;31.23;;;;;;;;;;4948358;28;20748;-44
2022/03/05 02:07:37;;;;;;;52.53;30.60;;;;;;;;;;4945554;28;20452;-43
2022/03/05 02:10:08;;;;;;;56.97;34.00;;;;;;;;;;4946646;28;21351;-45
2022/03/05 02:12:35;;;;;;;53.17;30.97;;;;;;;;;;4949877;28;21048;-44
2022/03/05 02:15:02;;;;;;;60.23;33.90;;;;;;;;;;4946501;28;20576;-44
2022/03/05 02:17:29;;;;;;;55.80;30.93;;;;;;;;;;4943797;28;20820;-44
2022/03/05 02:19:55;;;;;;;54.60;30.47;;;;;;;;;;4947065;28;20421;-43
2022/03/05 02:22:21;;;;;;;54.00;31.13;;;;;;;;;;4948782;28;20669;-44
2022/03/05 02:24:51;;;;;;;56.13;30.10;;;;;;;;;;4947247;28;20475;-44
2022/03/05 02:27:17;;;;;;;54.73;29.77;;;;;;;;;;4942264;28;20461;-44
2022/03/05 02:29:43;;;;;;;53.60;30.90;;;;;;;;;;4946652;28;20421;-43
2022/03/05 02:32:09;;;;;;;58.67;30.10;;;;;;;;;;4947971;28;20429;-43
2022/03/05 02:34:35;;;;;;;53.67;30.23;;;;;;;;;;4947910;28;20425;-44
2022/03/05 02:37:01;;;;;;;48.17;28.37;;;;;;;;;;4944586;28;20439;-44
2022/03/05 02:39:27;;;;;;;49.83;29.37;;;;;;;;;;4947249;28;20425;-44
2022/03/05 02:41:54;;;;;;;50.67;29.43;;;;;;;;;;4947211;28;20445;-44
2022/03/05 02:44:21;;;;;;;50.13;29.97;;;;;;;;;;4946363;28;20867;-44
2022/03/05 02:46:47;;;;;;;56.37;31.60;;;;;;;;;;4944552;28;22014;-44
2022/03/05 02:49:13;;;;;;;49.20;30.43;;;;;;;;;;4943458;28;20426;-44
2022/03/05 02:51:39;;;;;;;49.40;29.37;;;;;;;;;;4948553;28;20457;-44
2022/03/05 02:54:06;;;;;;;53.47;30.50;;;;;;;;;;4943876;28;20432;-44
2022/03/05 02:56:32;;;;;;;54.40;30.20;;;;;;;;;;4946380;28;21093;-44
2022/03/05 02:58:58;;;;;;;52.17;28.87;;;;;;;;;;4945097;28;21218;-44
2022/03/05 03:01:24;;;;;;;53.97;30.87;;;;;;;;;;4945108;28;20801;-44
2022/03/05 03:03:50;;;;;;;60.53;32.10;;;;;;;;;;4947136;28;20425;-44
2022/03/05 03:06:17;;;;;;;59.80;34.27;;;;;;;;;;4945338;28;20899;-43
2022/03/05 03:08:43;;;;;;;65.87;38.00;;;;;;;;;;4946530;28;21295;-43
2022/03/05 03:11:09;;;;;;;67.57;38.30;;;;;;;;;;4944290;28;20430;-43
2022/03/05 03:13:37;;;;;;;69.63;39.50;;;;;;;;;;4944034;28;20462;-43
2022/03/05 03:16:03;;;;;;;72.37;40.60;;;;;;;;;;4943767;28;20431;-44
2022/03/05 03:18:29;;;;;;;67.90;38.13;;;;;;;;;;4942536;28;20433;-44
2022/03/05 03:20:55;;;;;;;70.60;41.70;;;;;;;;;;4948175;28;20425;-44
2022/03/05 03:23:21;;;;;;;76.70;44.13;;;;;;;;;;4945884;28;20940;-44
2022/03/05 03:25:47;;;;;;;85.87;47.53;;;;;;;;;;4944253;28;20523;-43
2022/03/05 03:28:13;;;;;;;75.33;43.23;;;;;;;;;;4942867;28;20434;-43
2022/03/05 03:30:40;;;;;;;73.87;42.40;;;;;;;;;;4949032;28;20434;-42
2022/03/05 03:33:06;;;;;;;88.23;47.20;;;;;;;;;;4946682;28;20850;-43
2022/03/05 03:35:32;;;;;;;76.37;44.37;;;;;;;;;;4939656;28;20880;-43
2022/03/05 03:37:58;;;;;;;76.00;43.40;;;;;;;;;;4943862;28;20422;-44
2022/03/05 03:40:24;;;;;;;78.57;43.63;;;;;;;;;;4948324;28;20555;-43
2022/03/05 03:42:51;;;;;;;83.50;46.07;;;;;;;;;;4947817;28;20468;-44
2022/03/05 03:45:17;;;;;;;84.37;46.63;;;;;;;;;;4946887;28;21291;-43
2022/03/05 03:47:46;;;;;;;88.33;49.17;;;;;;;;;;4938516;28;20471;-43
2022/03/05 03:50:13;;;;;;;98.23;52.17;;;;;;;;;;4944416;28;20827;-43
2022/03/05 03:52:39;;;;;;;93.97;51.47;;;;;;;;;;4946283;28;21207;-43
2022/03/05 03:55:07;;;;;;;87.37;49.07;;;;;;;;;;4945258;28;20429;-43
2022/03/05 03:57:33;;;;;;;93.07;50.20;;;;;;;;;;4941071;28;20445;-44
2022/03/05 03:59:59;;;;;;;93.37;51.90;;;;;;;;;;4946172;28;20888;-44
2022/03/05 04:02:25;;;;;;;103.40;52.53;;;;;;;;;;4948895;28;20511;-43
2022/03/05 04:04:51;;;;;;;92.33;48.33;;;;;;;;;;4943675;28;20893;-45
2022/03/05 04:10:06;;;;;;;97.20;50.93;;;;;;;;;;4947678;28;20500;-44
2022/03/05 04:12:32;;;;;;;106.37;51.00;;;;;;;;;;4943913;28;21078;-43
2022/03/05 04:14:59;;;;;;;103.20;49.97;;;;;;;;;;4942686;28;20503;-44
2022/03/05 04:17:25;;;;;;;129.20;59.00;;;;;;;;;;4942573;28;20551;-43
2022/03/05 04:19:51;;;;;;;108.27;54.53;;;;;;;;;;4946354;28;20440;-44
2022/03/05 04:22:17;;;;;;;115.87;55.63;;;;;;;;;;4944998;28;20430;-44
2022/03/05 04:24:43;;;;;;;111.17;52.03;;;;;;;;;;4944330;28;21358;-44
2022/03/05 04:27:09;;;;;;;120.10;55.40;;;;;;;;;;4941743;28;20457;-43
2022/03/05 04:29:36;;;;;;;121.80;55.40;;;;;;;;;;4943662;28;21306;-44
2022/03/05 04:32:02;;;;;;;138.10;59.97;;;;;;;;;;4944259;28;20861;-44
2022/03/05 04:34:28;;;;;;;123.33;57.57;;;;;;;;;;4943438;28;20664;-44
2022/03/05 04:36:54;;;;;;;133.37;58.53;;;;;;;;;;4944755;28;20436;-44
2022/03/05 04:39:20;;;;;;;129.37;54.93;;;;;;;;;;4945941;28;20436;-45
2022/03/05 04:41:46;;;;;;;126.23;57.53;;;;;;;;;;4943967;28;20456;-44
2022/03/05 04:44:12;;;;;;;123.63;55.30;;;;;;;;;;4942086;28;20894;-43
2022/03/05 04:46:38;;;;;;;100.83;49.07;;;;;;;;;;4942738;28;20584;-44
2022/03/05 04:49:04;;;;;;;81.27;41.87;;;;;;;;;;4945948;28;21450;-43
2022/03/05 04:51:31;;;;;;;68.03;36.97;;;;;;;;;;4946746;28;20436;-44
2022/03/05 04:53:57;;;;;;;57.20;31.40;;;;;;;;;;4941728;28;20430;-44
2022/03/05 04:56:23;;;;;;;59.10;30.53;;;;;;;;;;4941852;28;20814;-44
2022/03/05 04:58:49;;;;;;;54.63;30.77;;;;;;;;;;4943053;28;20436;-44
2022/03/05 05:01:15;;;;;;;56.43;29.80;;;;;;;;;;4943461;28;20830;-44
2022/03/05 05:03:42;;;;;;;56.20;31.00;;;;;;;;;;4946627;28;20794;-44
2022/03/05 05:06:08;;;;;;;47.23;28.17;;;;;;;;;;4941561;28;20429;-44
2022/03/05 05:08:34;;;;;;;49.30;28.10;;;;;;;;;;4940773;28;20775;-43
2022/03/05 05:11:00;;;;;;;50.63;27.67;;;;;;;;;;4945098;28;20429;-44
2022/03/05 05:13:26;;;;;;;47.57;27.90;;;;;;;;;;4944086;28;20436;-44
2022/03/05 05:15:52;;;;;;;45.87;27.30;;;;;;;;;;4939647;28;20943;-43
2022/03/05 05:18:18;;;;;;;45.83;26.20;;;;;;;;;;4942503;28;20634;-43
2022/03/05 05:20:44;;;;;;;46.70;28.43;;;;;;;;;;4944264;28;20556;-44
2022/03/05 05:23:11;;;;;;;44.03;26.33;;;;;;;;;;4945804;28;20476;-44
2022/03/05 05:25:37;;;;;;;51.20;28.77;;;;;;;;;;4939642;28;20477;-44
2022/03/05 05:28:03;;;;;;;60.13;33.40;;;;;;;;;;4941352;28;20461;-44
2022/03/05 05:30:29;;;;;;;68.27;36.13;;;;;;;;;;4945173;28;20456;-44
2022/03/05 05:32:55;;;;;;;59.23;33.20;;;;;;;;;;4945675;28;20752;-44
2022/03/05 05:35:21;;;;;;;62.13;34.50;;;;;;;;;;4939583;28;21036;-44
2022/03/05 05:37:47;;;;;;;58.47;33.30;;;;;;;;;;4957742;28;20782;-44
2022/03/05 05:40:13;;;;;;;71.63;37.97;;;;;;;;;;4943931;28;20487;-44
2022/03/05 05:42:39;;;;;;;68.07;37.13;;;;;;;;;;4942168;28;20445;-45
2022/03/05 05:45:06;;;;;;;147.13;49.97;;;;;;;;;;4940078;28;20422;-44
2022/03/05 05:47:32;;;;;;;126.37;53.47;;;;;;;;;;4941955;28;20445;-45
2022/03/05 05:49:58;;;;;;;172.40;52.40;;;;;;;;;;4944039;28;20915;-44
2022/03/05 05:52:24;;;;;;;228.47;66.80;;;;;;;;;;4942736;28;20483;-44
2022/03/05 05:54:51;;;;;;;120.00;53.77;;;;;;;;;;4943142;28;21264;-44
2022/03/05 05:57:17;;;;;;;259.00;70.27;;;;;;;;;;4941955;28;20600;-44
2022/03/05 05:59:43;;;;;;;239.37;78.97;;;;;;;;;;4946476;28;20774;-44
2022/03/05 06:02:09;;;;;;;156.53;68.60;;;;;;;;;;4942181;28;21008;-44
2022/03/05 06:04:35;;;;;;;269.33;81.70;;;;;;;;;;4942736;28;20440;-45
2022/03/05 06:07:01;;;;;;;173.60;68.43;;;;;;;;;;4941484;28;20930;-44
2022/03/05 06:09:27;;;;;;;175.80;71.67;;;;;;;;;;4943054;28;20488;-44
2022/03/05 06:11:54;;;;;;;170.37;70.17;;;;;;;;;;4947142;28;20429;-44
2022/03/05 06:14:20;;;;;;;180.70;72.33;;;;;;;;;;4945439;28;20479;-44
2022/03/05 06:16:46;;;;;;;156.73;65.63;;;;;;;;;;4942369;28;20670;-44
2022/03/05 06:19:12;;;;;;;130.37;61.43;;;;;;;;;;4940511;28;20407;-44
2022/03/05 06:21:38;;;;;;;154.13;67.27;;;;;;;;;;4945196;28;20685;-44
2022/03/05 06:24:04;;;;;;;119.40;55.37;;;;;;;;;;4944487;28;20478;-44
2022/03/05 06:26:31;;;;;;;142.63;63.40;;;;;;;;;;4944433;28;20491;-44
2022/03/05 06:28:58;;;;;;;157.40;69.67;;;;;;;;;;4949241;28;20545;-44
2022/03/05 06:31:24;;;;;;;126.97;60.70;;;;;;;;;;4947732;28;20803;-44
2022/03/05 06:33:50;;;;;;;131.33;62.87;;;;;;;;;;4946681;28;20449;-44
2022/03/05 06:36:17;;;;;;;145.53;68.00;;;;;;;;;;4947071;28;20432;-44
2022/03/05 06:38:43;;;;;;;142.07;66.63;;;;;;;;;;4949366;28;20464;-45
2022/03/05 06:41:09;;;;;;;150.47;70.40;;;;;;;;;;4947735;28;20422;-44
2022/03/05 06:43:35;;;;;;;127.90;63.33;;;;;;;;;;4950728;28;20770;-44
2022/03/05 06:46:02;;;;;;;134.80;64.17;;;;;;;;;;4948769;28;20430;-44
2022/03/05 06:48:28;;;;;;;132.37;61.93;;;;;;;;;;4941033;28;20559;-44
2022/03/05 06:50:54;;;;;;;110.20;55.60;;;;;;;;;;4947008;28;20446;-44
2022/03/05 06:53:20;;;;;;;126.17;59.80;;;;;;;;;;4946157;28;20913;-44
2022/03/05 06:55:46;;;;;;;130.50;60.40;;;;;;;;;;4948251;28;20442;-44
2022/03/05 06:58:14;;;;;;;124.97;63.13;;;;;;;;;;4946157;28;20417;-44
2022/03/05 07:00:40;;;;;;;108.67;55.60;;;;;;;;;;4944697;28;20421;-44
2022/03/05 07:03:06;;;;;;;115.60;58.47;;;;;;;;;;4947614;28;20495;-44
2022/03/05 07:05:32;;;;;;;106.43;53.27;;;;;;;;;;4946053;28;20850;-44
2022/03/05 07:07:58;;;;;;;111.83;56.43;;;;;;;;;;4946868;28;20867;-42
2022/03/05 07:10:24;;;;;;;117.87;58.17;;;;;;;;;;4945474;28;20417;-44
2022/03/05 07:12:50;;;;;;;113.27;58.43;;;;;;;;;;4938469;28;20909;-44
2022/03/05 07:15:17;;;;;;;110.83;56.37;;;;;;;;;;4944626;28;20437;-44
2022/03/05 07:17:50;;;;;;;104.67;53.90;;;;;;;;;;4944367;28;20460;-44
2022/03/05 07:20:17;;;;;;;104.60;53.57;;;;;;;;;;4945960;28;20410;-44
2022/03/05 07:22:43;;;;;;;96.23;50.80;;;;;;;;;;4945316;28;20953;-45
2022/03/05 07:25:10;;;;;;;102.87;52.97;;;;;;;;;;4943889;28;20986;-45
2022/03/05 07:27:36;;;;;;;91.30;47.97;;;;;;;;;;4940846;28;20924;-45
2022/03/05 07:30:02;;;;;;;117.07;56.27;;;;;;;;;;4940584;28;20433;-45
2022/03/05 07:32:28;;;;;;;110.03;52.80;;;;;;;;;;4946029;28;20969;-45
2022/03/05 07:34:54;;;;;;;128.27;55.63;;;;;;;;;;4945517;28;20426;-45
2022/03/05 07:37:20;;;;;;;110.70;52.00;;;;;;;;;;4940979;28;20429;-45
2022/03/05 07:39:46;;;;;;;144.93;62.10;;;;;;;;;;4941381;28;20507;-45
2022/03/05 07:42:12;;;;;;;109.20;52.87;;;;;;;;;;4943180;28;20427;-45
2022/03/05 07:44:38;;;;;;;144.93;60.13;;;;;;;;;;4945164;28;21076;-45
2022/03/05 07:47:05;;;;;;;135.80;57.70;;;;;;;;;;4941836;28;20449;-45
2022/03/05 07:49:31;;;;;;;142.60;62.27;;;;;;;;;;4941013;28;21036;-44
2022/03/05 07:51:57;;;;;;;140.07;59.53;;;;;;;;;;4945059;28;20436;-45
2022/03/05 07:54:24;;;;;;;127.77;56.90;;;;;;;;;;4944573;28;20433;-45
2022/03/05 07:56:50;;;;;;;140.63;60.87;;;;;;;;;;4943937;28;20523;-45
2022/03/05 07:59:17;;;;;;;160.23;64.50;;;;;;;;;;4947025;28;20410;-45
2022/03/05 08:01:43;;;;;;;183.80;71.47;;;;;;;;;;4944852;28;20628;-45
2022/03/05 08:04:09;;;;;;;145.20;62.07;;;;;;;;;;4942637;28;21130;-45
2022/03/05 08:06:35;;;;;;;146.50;63.83;;;;;;;;;;4938509;28;20464;-46
2022/03/05 08:09:01;;;;;;;135.50;58.67;;;;;;;;;;4942264;28;20943;-46
2022/03/05 08:11:27;;;;;;;138.17;60.97;;;;;;;;;;4943320;28;22163;-46
2022/03/05 08:13:53;;;;;;;127.47;58.63;;;;;;;;;;4945100;28;21168;-46
2022/03/05 08:16:19;;;;;;;142.03;59.07;;;;;;;;;;4941135;28;20436;-46
2022/03/05 08:18:45;;;;;;;128.30;55.00;;;;;;;;;;4942850;28;20429;-46
2022/03/05 08:21:11;;;;;;;125.20;55.80;;;;;;;;;;4942649;28;20430;-46
2022/03/05 08:23:37;;;;;;;112.10;51.03;;;;;;;;;;4942381;28;20421;-46
2022/03/05 08:26:05;;;;;;;105.10;48.50;;;;;;;;;;4946566;28;20418;-46
2022/03/05 08:28:31;;;;;;;108.27;49.20;;;;;;;;;;4946784;28;20425;-45
2022/03/05 08:30:57;;;;;;;95.83;45.97;;;;;;;;;;4945517;28;20873;-46
2022/03/05 08:33:23;;;;;;;90.97;44.80;;;;;;;;;;4942358;28;20610;-46
2022/03/05 08:35:50;;;;;;;79.90;41.10;;;;;;;;;;4941449;28;20839;-46
2022/03/05 08:38:16;;;;;;;72.57;37.40;;;;;;;;;;4945772;28;20449;-45
2022/03/05 08:40:42;;;;;;;76.03;36.67;;;;;;;;;;4946006;28;20813;-46
2022/03/05 08:43:08;;;;;;;66.77;34.00;;;;;;;;;;4942720;28;20463;-46
2022/03/05 08:45:34;;;;;;;52.63;28.73;;;;;;;;;;4943446;28;20755;-46
2022/03/05 08:48:01;;;;;;;53.90;29.87;;;;;;;;;;4943716;28;21284;-46
2022/03/05 08:50:27;;;;;;;71.10;35.33;;;;;;;;;;4946302;28;20457;-46
2022/03/05 08:52:53;;;;;;;53.03;28.77;;;;;;;;;;4946421;28;20513;-46
2022/03/05 08:55:19;;;;;;;58.53;30.10;;;;;;;;;;4938497;28;20875;-47
2022/03/05 08:57:45;;;;;;;55.97;29.50;;;;;;;;;;4942902;28;20429;-46
2022/03/05 09:00:12;;;;;;;51.50;27.57;;;;;;;;;;4944411;28;20430;-46
2022/03/05 09:02:38;;;;;;;45.60;25.03;;;;;;;;;;4945502;28;20701;-46
2022/03/05 09:05:05;;;;;;;49.40;25.93;;;;;;;;;;4943447;28;20949;-46
2022/03/05 09:07:31;;;;;;;49.87;26.87;;;;;;;;;;4943696;28;20488;-46
2022/03/05 09:09:57;;;;;;;45.43;25.43;;;;;;;;;;4942267;28;20540;-46
2022/03/05 09:12:23;;;;;;;46.07;23.20;;;;;;;;;;4947006;28;20429;-46
2022/03/05 09:14:49;;;;;;;39.90;21.50;;;;;;;;;;4945350;28;20457;-46
2022/03/05 09:17:16;;;;;;;41.60;23.73;;;;;;;;;;4948479;28;20805;-46
2022/03/05 09:19:42;;;;;;;37.20;20.37;;;;;;;;;;4946045;28;20426;-46
2022/03/05 09:22:10;;;;;;;33.43;18.80;;;;;;;;;;4946615;28;20648;-46
2022/03/05 09:24:36;;;;;;;29.90;17.27;;;;;;;;;;4947918;28;21266;-46
2022/03/05 09:27:02;;;;;;;30.70;16.90;;;;;;;;;;4944800;28;20499;-46
2022/03/05 09:29:28;;;;;;;25.17;15.50;;;;;;;;;;4947131;28;20445;-46
2022/03/05 09:31:55;;;;;;;26.00;15.90;;;;;;;;;;4944514;28;20440;-46
2022/03/05 09:34:21;;;;;;;24.33;14.10;;;;;;;;;;4941930;28;20537;-46
2022/03/05 09:36:47;;;;;;;23.37;12.80;;;;;;;;;;4946237;28;20725;-46
2022/03/05 09:39:13;;;;;;;23.10;13.30;;;;;;;;;;4944950;28;20434;-46
2022/03/05 09:41:39;;;;;;;19.93;10.57;;;;;;;;;;4945916;28;20425;-45
2022/03/05 09:44:06;;;;;;;22.13;12.07;;;;;;;;;;4944355;28;20514;-45
2022/03/05 09:46:32;;;;;;;21.93;11.00;;;;;;;;;;4941774;28;20501;-47
2022/03/05 09:48:59;;;;;;;20.30;11.27;;;;;;;;;;4945805;28;20914;-45
2022/03/05 09:51:25;;;;;;;20.67;11.23;;;;;;;;;;4946382;28;20426;-45
2022/03/05 09:53:55;;;;;;;20.43;10.50;;;;;;;;;;4944468;28;20415;-45
2022/03/05 09:56:21;;;;;;;19.70;11.53;;;;;;;;;;4941842;28;20425;-45
2022/03/05 09:58:48;;;;;;;18.40;10.63;;;;;;;;;;4944290;28;20881;-45
2022/03/05 10:01:14;;;;;;;17.70;10.27;;;;;;;;;;4944000;28;21005;-44
2022/03/05 10:03:44;;;;;;;17.30;10.63;;;;;;;;;;4951235;28;20429;-45
2022/03/05 10:06:15;;;;;;;15.90;9.30;;;;;;;;;;4947116;28;20901;-45
2022/03/05 10:08:41;;;;;;;18.57;10.00;;;;;;;;;;4946486;28;20762;-45
2022/03/05 10:11:09;;;;;;;17.23;10.43;;;;;;;;;;4947037;28;21307;-45
2022/03/05 10:13:37;;;;;;;17.43;9.90;;;;;;;;;;4947262;28;20438;-44
2022/03/05 10:16:04;;;;;;;18.63;9.33;;;;;;;;;;4947872;28;20460;-44
2022/03/05 10:18:30;;;;;;;18.37;9.20;;;;;;;;;;4949924;28;20754;-42
2022/03/05 10:20:57;;;;;;;20.37;10.43;;;;;;;;;;4945582;28;20492;-44
2022/03/05 10:23:24;;;;;;;21.40;11.20;;;;;;;;;;4945672;28;20446;-45
2022/03/05 10:25:54;;;;;;;19.83;11.30;;;;;;;;;;4945270;28;20425;-44
2022/03/05 10:28:22;;;;;;;17.87;10.27;;;;;;;;;;4944936;28;20202;-45
2022/03/05 10:30:49;;;;;;;17.73;10.17;;;;;;;;;;4948166;28;20422;-45
2022/03/05 10:33:28;;;;;;;20.43;10.07;;;;;;;;;;4947217;28;20823;-45
2022/03/05 10:35:56;;;;;;;17.00;10.30;;;;;;;;;;4946406;28;21536;-43
2022/03/05 10:38:22;;;;;;;17.93;9.90;;;;;;;;;;4946152;28;20891;-45
2022/03/05 10:40:55;;;;;;;17.17;10.20;;;;;;;;;;4949745;28;20794;-45
2022/03/05 10:43:21;;;;;;;19.47;11.20;;;;;;;;;;4944386;28;20755;-45
2022/03/05 10:45:51;;;;;;;17.57;9.77;;;;;;;;;;4946278;28;20513;-45
2022/03/05 10:48:24;;;;;;;20.00;10.10;;;;;;;;;;4948230;28;20793;-45
2022/03/05 10:50:59;;;;;;;17.90;9.67;;;;;;;;;;4949083;28;20944;-45
2022/03/05 10:53:43;;;;;;;16.67;9.20;;;;;;;;;;4948868;28;21032;-47
2022/03/05 10:56:26;;;;;;;20.10;9.80;;;;;;;;;;4949265;28;20173;-46
2022/03/05 10:59:06;;;;;;;17.07;9.43;;;;;;;;;;4947160;28;20509;-46
2022/03/05 11:01:32;;;;;;;16.47;9.47;;;;;;;;;;4948311;28;20450;-46
2022/03/05 11:03:59;;;;;;;17.77;8.90;;;;;;;;;;4944666;28;20445;-45
2022/03/05 11:06:25;;;;;;;18.50;9.27;;;;;;;;;;4944848;28;20205;-45
2022/03/05 11:08:52;;;;;;;17.20;9.40;;;;;;;;;;4945301;28;20436;-45
2022/03/05 11:11:19;;;;;;;17.30;9.53;;;;;;;;;;4949254;28;20501;-45
2022/03/05 11:13:46;;;;;;;14.90;9.17;;;;;;;;;;4945611;28;20177;-45
2022/03/05 11:16:12;;;;;;;15.93;9.43;;;;;;;;;;4946590;28;20566;-45
2022/03/05 11:18:39;;;;;;;17.90;9.63;;;;;;;;;;4942966;28;20958;-45
2022/03/05 11:21:06;;;;;;;17.00;9.10;;;;;;;;;;4947389;28;20181;-45
2022/03/05 11:23:33;;;;;;;16.57;8.93;;;;;;;;;;4949164;28;20178;-45
2022/03/05 11:26:00;;;;;;;14.77;8.17;;;;;;;;;;4951092;28;20662;-45
2022/03/05 11:28:34;;;;;;;15.90;8.53;;;;;;;;;;4944335;28;20762;-44
2022/03/05 11:31:00;;;;;;;14.43;8.47;;;;;;;;;;4947327;28;20163;-45
2022/03/05 11:33:38;;;;;;;15.30;9.10;;;;;;;;;;4944967;28;20519;-44
2022/03/05 11:36:07;;;;;;;15.90;7.80;;;;;;;;;;4951909;28;20170;-45
2022/03/05 11:38:35;;;;;;;11.60;7.17;;;;;;;;;;4948055;28;20847;-44
2022/03/05 11:41:05;;;;;;;14.37;6.73;;;;;;;;;;4946534;28;20864;-44
2022/03/05 11:43:41;;;;;;;15.20;7.17;;;;;;;;;;4950061;28;20477;-44
2022/03/05 11:46:08;;;;;;;13.83;7.47;;;;;;;;;;4950502;28;20739;-45
2022/03/05 11:48:37;;;;;;;13.10;7.20;;;;;;;;;;4948643;28;20207;-45
2022/03/05 11:51:12;;;;;;;11.37;7.80;;;;;;;;;;4943647;28;20620;-45
2022/03/05 11:53:38;;;;;;;11.93;7.40;;;;;;;;;;4942540;28;20177;-45
2022/03/05 11:56:23;;;;;;;18.20;8.03;;;;;;;;;;4945222;28;20206;-45
2022/03/05 11:58:49;;;;;;;16.17;7.33;;;;;;;;;;4946690;28;20496;-45
2022/03/05 12:01:34;;;;;;;15.60;7.63;;;;;;;;;;4944933;28;20281;-45
2022/03/05 12:04:04;;;;;;;12.37;7.70;;;;;;;;;;4943115;28;20588;-45
2022/03/05 12:06:42;;;;;;;13.10;7.03;;;;;;;;;;4943908;28;20531;-45
2022/03/05 12:09:28;;;;;;;12.97;7.57;;;;;;;;;;4943197;28;20691;-44
2022/03/05 12:11:55;;;;;;;13.70;7.50;;;;;;;;;;4945116;28;20277;-45
2022/03/05 12:14:21;;;;;;;13.83;7.30;;;;;;;;;;4946950;28;21032;-45
2022/03/05 12:16:48;;;;;;;14.50;7.80;;;;;;;;;;4942279;28;20432;-45
2022/03/05 12:19:15;;;;;;;15.63;7.17;;;;;;;;;;4944447;28;20662;-45
2022/03/05 12:21:41;;;;;;;12.50;6.97;;;;;;;;;;4947221;28;20925;-45
2022/03/05 12:24:09;;;;;;;16.13;7.27;;;;;;;;;;4943272;28;20186;-45
2022/03/05 12:26:47;;;;;;;15.53;7.33;;;;;;;;;;4943350;28;20358;-45
2022/03/05 12:29:13;;;;;;;11.33;7.20;;;;;;;;;;4941878;28;20174;-46
2022/03/05 12:31:40;;;;;;;11.33;7.37;;;;;;;;;;4946877;28;20577;-45
2022/03/05 12:34:06;;;;;;;11.70;6.70;;;;;;;;;;4941311;28;20265;-45
2022/03/05 12:36:32;;;;;;;13.00;6.77;;;;;;;;;;4943203;28;20735;-45
2022/03/05 12:39:00;;;;;;;11.17;7.27;;;;;;;;;;4944324;28;20753;-46
2022/03/05 12:41:27;;;;;;;13.13;7.40;;;;;;;;;;4947278;28;20743;-46
2022/03/05 12:43:56;;;;;;;16.37;7.77;;;;;;;;;;4942715;28;20197;-46
2022/03/05 12:46:23;;;;;;;14.27;7.80;;;;;;;;;;4940049;28;20178;-46
2022/03/05 12:48:49;;;;;;;15.43;6.83;;;;;;;;;;4944543;28;20190;-45
2022/03/05 12:51:15;;;;;;;10.50;7.40;;;;;;;;;;4944449;28;20181;-45
2022/03/05 12:53:42;;;;;;;12.70;6.93;;;;;;;;;;4944225;28;20319;-45
2022/03/05 12:56:08;;;;;;;11.57;7.30;;;;;;;;;;4942813;28;20473;-45
2022/03/05 12:58:36;;;;;;;12.97;7.27;;;;;;;;;;4945523;28;20187;-46
2022/03/05 13:01:04;;;;;;;11.67;6.97;;;;;;;;;;4943770;28;20663;-45
2022/03/05 13:03:34;;;;;;;14.23;7.40;;;;;;;;;;4956793;28;20194;-45
2022/03/05 13:06:01;;;;;;;14.27;8.47;;;;;;;;;;4934016;28;20507;-45
2022/03/05 13:08:31;;;;;;;11.07;7.30;;;;;;;;;;4872107;28;20659;-45
2022/03/05 13:11:00;;;;;;;11.00;7.10;;;;;;;;;;4858210;29;20701;-46
2022/03/05 13:13:31;;;;;;;14.27;7.80;;;;;;;;;;4856356;29;20219;-45
2022/03/05 13:15:57;;;;;;;9.33;6.60;;;;;;;;;;4847947;29;20197;-45
2022/03/05 13:18:23;;;;;;;11.87;7.73;;;;;;;;;;4856891;29;20178;-45
2022/03/05 13:20:49;;;;;;;12.57;7.13;;;;;;;;;;4856291;29;20193;-45
2022/03/05 13:23:19;;;;;;;9.33;6.70;;;;;;;;;;4853125;29;20181;-45
2022/03/05 13:25:49;;;;;;;13.63;7.33;;;;;;;;;;4856625;29;20536;-46
2022/03/05 13:28:16;;;;;;;12.77;7.23;;;;;;;;;;4846556;29;20220;-45
2022/03/05 13:30:44;;;;;;;13.37;6.77;;;;;;;;;;4857404;29;20530;-44
2022/03/05 13:33:11;;;;;;;12.67;7.10;;;;;;;;;;4856131;29;20553;-44
2022/03/05 13:35:43;;;;;;;11.43;6.77;;;;;;;;;;4855298;29;20501;-43
2022/03/05 13:38:26;;;;;;;10.23;7.10;;;;;;;;;;4852007;29;20605;-45
2022/03/05 13:40:52;;;;;;;12.73;7.07;;;;;;;;;;4851635;29;20702;-45
2022/03/05 13:43:24;;;;;;;13.57;7.30;;;;;;;;;;4856867;29;20955;-45
2022/03/05 13:45:51;;;;;;;11.83;7.27;;;;;;;;;;4857016;29;20186;-45
2022/03/05 13:48:17;;;;;;;10.47;6.40;;;;;;;;;;4829487;29;20864;-43
2022/03/05 13:50:44;;;;;;;10.17;6.53;;;;;;;;;;4856479;29;20181;-45
2022/03/05 13:53:10;;;;;;;15.00;6.43;;;;;;;;;;4855890;29;20257;-45
2022/03/05 13:55:36;;;;;;;13.17;6.80;;;;;;;;;;4858008;29;20193;-45
2022/03/05 13:58:02;;;;;;;13.23;6.60;;;;;;;;;;4856214;29;20180;-45
2022/03/05 14:00:31;;;;;;;12.10;6.70;;;;;;;;;;4849795;29;20812;-45
2022/03/05 14:02:58;;;;;;;15.47;6.93;;;;;;;;;;4847586;29;20560;-45
2022/03/05 14:05:30;;;;;;;12.87;6.60;;;;;;;;;;4847097;29;20628;-45
2022/03/05 14:07:57;;;;;;;9.83;6.50;;;;;;;;;;4852620;29;20754;-45
2022/03/05 14:10:25;;;;;;;9.70;6.27;;;;;;;;;;4850063;29;20603;-44
2022/03/05 14:12:56;;;;;;;11.30;6.60;;;;;;;;;;4848712;29;20499;-45
2022/03/05 14:15:24;;;;;;;10.53;6.27;;;;;;;;;;4852514;29;20675;-45
2022/03/05 14:17:59;;;;;;;9.90;6.40;;;;;;;;;;4846445;29;20683;-45
2022/03/05 14:20:26;;;;;;;11.47;6.47;;;;;;;;;;4852386;29;20284;-45